createdAt,value
2022-07-31T00:00:55.471Z,17.35
2022-07-31T00:04:07.314Z,24.65
2022-07-31T00:07:19.136Z,18.88
2022-07-31T00:10:31.234Z,18.90
2022-07-31T00:13:57.994Z,16.83
2022-07-31T00:16:57.522Z,21.20
2022-07-31T00:20:13.442Z,15.73
2022-07-31T00:23:25.227Z,16.73
2022-07-31T00:26:37.858Z,15.38
2022-07-31T00:29:49.537Z,16.55
2022-07-31T00:33:01.210Z,17.93
2022-07-31T00:36:13.843Z,12.08
2022-07-31T00:39:25.523Z,13.98
2022-07-31T00:42:37.394Z,13.83
2022-07-31T00:45:58.957Z,15.30
2022-07-31T00:49:03.073Z,19.03
2022-07-31T00:52:14.973Z,9.30
2022-07-31T00:55:26.718Z,14.10
2022-07-31T00:58:38.617Z,7.73
2022-07-31T01:01:50.486Z,10.05
2022-07-31T01:05:02.072Z,7.80
2022-07-31T01:08:14.112Z,10.10
2022-07-31T01:11:32.773Z,10.05
2022-07-31T01:14:50.868Z,8.58
2022-07-31T01:18:04.385Z,5.95
2022-07-31T01:21:20.915Z,6.75
2022-07-31T01:24:52.521Z,7.28
2022-07-31T01:28:15.225Z,10.65
2022-07-31T01:31:32.377Z,8.20
2022-07-31T01:34:50.462Z,7.58
2022-07-31T01:38:08.335Z,6.05
2022-07-31T01:41:25.149Z,6.08
2022-07-31T01:44:42.375Z,5.33
2022-07-31T01:47:56.427Z,7.45
2022-07-31T01:51:11.600Z,4.53
2022-07-31T01:54:25.814Z,6.95
2022-07-31T01:57:40.979Z,7.00
2022-07-31T02:00:54.685Z,7.90
2022-07-31T02:04:10.389Z,5.55
2022-07-31T02:07:23.991Z,5.38
2022-07-31T02:10:37.536Z,7.70
2022-07-31T02:13:50.449Z,7.78
2022-07-31T02:17:03.298Z,7.90
2022-07-31T02:20:25.175Z,10.80
2022-07-31T02:23:41.152Z,10.33
2022-07-31T02:26:54.490Z,8.13
2022-07-31T02:30:09.320Z,5.48
2022-07-31T02:33:24.548Z,6.05
2022-07-31T02:36:38.909Z,8.58
2022-07-31T02:39:52.397Z,5.28
2022-07-31T02:43:04.445Z,2.75
2022-07-31T02:46:19.716Z,3.40
2022-07-31T02:49:31.771Z,4.48
2022-07-31T02:52:44.895Z,3.18
2022-07-31T02:55:58.425Z,4.75
2022-07-31T02:59:11.390Z,4.65
2022-07-31T03:02:36.917Z,2.63
2022-07-31T03:05:39.710Z,4.05
2022-07-31T03:08:51.776Z,4.78
2022-07-31T03:12:05.769Z,2.23
2022-07-31T03:15:23.727Z,2.33
2022-07-31T03:18:37.294Z,4.60
2022-07-31T03:21:49.450Z,4.08
2022-07-31T03:25:01.282Z,2.00
2022-07-31T03:28:13.304Z,3.20
2022-07-31T03:31:25.492Z,4.05
2022-07-31T03:34:37.544Z,3.60
2022-07-31T03:37:49.577Z,3.98
2022-07-31T03:41:01.766Z,3.88
2022-07-31T03:44:14.296Z,1.63
2022-07-31T03:47:26.236Z,3.03
2022-07-31T03:50:38.327Z,2.33
2022-07-31T03:53:52.213Z,4.75
2022-07-31T03:57:26.995Z,2.10
2022-07-31T04:00:39.636Z,1.68
2022-07-31T04:03:52.625Z,1.70
2022-07-31T04:07:06.289Z,2.70
2022-07-31T04:10:18.894Z,1.88
2022-07-31T04:13:30.562Z,1.48
2022-07-31T04:16:42.254Z,1.63
2022-07-31T04:19:54.624Z,0.98
2022-07-31T04:23:07.309Z,1.60
2022-07-31T04:26:34.175Z,1.40
2022-07-31T04:29:49.212Z,3.90
2022-07-31T04:33:00.949Z,2.38
2022-07-31T04:36:29.446Z,4.15
2022-07-31T04:39:26.950Z,0.78
2022-07-31T04:42:40.395Z,2.75
2022-07-31T04:45:54.979Z,1.38
2022-07-31T04:49:06.792Z,0.83
2022-07-31T04:52:19.097Z,0.75
2022-07-31T04:55:32.715Z,1.28
2022-07-31T04:58:44.331Z,0.90
2022-07-31T05:01:57.578Z,1.13
2022-07-31T05:05:16.629Z,0.95
2022-07-31T05:08:28.200Z,2.08
2022-07-31T05:11:41.165Z,1.28
2022-07-31T05:14:53.631Z,2.05
2022-07-31T05:18:07.674Z,2.75
2022-07-31T05:21:30.746Z,3.63
2022-07-31T05:25:00.975Z,1.18
2022-07-31T05:28:13.387Z,1.08
2022-07-31T05:31:26.852Z,1.73
2022-07-31T05:34:38.769Z,2.03
2022-07-31T05:37:50.518Z,0.90
2022-07-31T05:41:04.189Z,1.78
2022-07-31T05:44:23.242Z,1.60
2022-07-31T05:47:40.498Z,1.83
2022-07-31T05:50:51.674Z,3.23
2022-07-31T05:54:03.561Z,2.25
2022-07-31T05:57:34.653Z,2.50
2022-07-31T06:00:52.450Z,4.60
2022-07-31T06:04:06.688Z,2.78
2022-07-31T06:07:20.301Z,2.68
2022-07-31T06:10:32.889Z,3.85
2022-07-31T06:13:45.633Z,3.33
2022-07-31T06:17:00.023Z,2.95
2022-07-31T06:20:17.034Z,1.30
2022-07-31T06:23:32.146Z,10.75
2022-07-31T06:26:48.197Z,2.90
2022-07-31T06:30:00.988Z,4.68
2022-07-31T06:33:16.689Z,4.65
2022-07-31T06:36:27.319Z,3.93
2022-07-31T06:39:55.453Z,2.38
2022-07-31T06:43:19.114Z,2.05
2022-07-31T06:46:49.771Z,2.10
2022-07-31T06:50:10.854Z,1.48
2022-07-31T06:53:26.981Z,4.68
2022-07-31T06:56:40.369Z,5.25
2022-07-31T06:59:52.867Z,0.58
2022-07-31T07:03:04.707Z,0.60
2022-07-31T07:06:16.498Z,1.73
2022-07-31T07:09:28.353Z,1.85
2022-07-31T07:12:40.396Z,1.33
2022-07-31T07:15:53.428Z,1.25
2022-07-31T07:19:07.406Z,1.85
2022-07-31T07:22:19.292Z,2.70
2022-07-31T07:25:33.757Z,3.63
2022-07-31T07:28:46.332Z,0.90
2022-07-31T07:32:00.537Z,1.28
2022-07-31T07:35:14.185Z,1.08
2022-07-31T07:38:28.052Z,0.70
2022-07-31T07:41:41.235Z,1.60
2022-07-31T07:44:53.344Z,2.78
2022-07-31T07:48:07.572Z,1.83
2022-07-31T07:51:21.870Z,4.80
2022-07-31T07:54:35.642Z,1.65
2022-07-31T07:57:56.602Z,1.15
2022-07-31T08:01:11.694Z,1.85
2022-07-31T08:04:25.031Z,2.15
2022-07-31T08:07:42.760Z,1.50
2022-07-31T08:10:56.193Z,1.18
2022-07-31T08:14:15.265Z,1.93
2022-07-31T08:17:45.439Z,1.18
2022-07-31T08:20:59.311Z,3.30
2022-07-31T08:24:13.084Z,2.28
2022-07-31T08:27:39.973Z,1.40
2022-07-31T08:30:42.949Z,2.78
2022-07-31T08:33:55.894Z,2.33
2022-07-31T08:37:52.467Z,1.53
2022-07-31T08:40:24.832Z,2.45
2022-07-31T08:44:01.926Z,1.80
2022-07-31T08:46:52.578Z,1.40
2022-07-31T08:50:06.312Z,2.08
2022-07-31T08:53:22.925Z,2.20
2022-07-31T08:56:41.800Z,3.40
2022-07-31T08:59:57.954Z,2.65
2022-07-31T09:03:11.182Z,2.65
2022-07-31T09:06:33.686Z,2.55
2022-07-31T09:09:51.514Z,1.35
2022-07-31T09:13:04.451Z,1.25
2022-07-31T09:16:16.534Z,1.10
2022-07-31T09:19:52.371Z,1.75
2022-07-31T09:23:14.841Z,3.80
2022-07-31T09:26:42.002Z,6.28
2022-07-31T09:29:55.703Z,15.30
2022-07-31T09:33:24.943Z,1.83
2022-07-31T09:36:54.475Z,3.68
2022-07-31T09:40:15.866Z,1.98
2022-07-31T09:43:48.423Z,2.40
2022-07-31T09:46:59.760Z,2.05
2022-07-31T09:50:26.593Z,6.80
2022-07-31T09:53:56.755Z,4.58
2022-07-31T09:57:38.799Z,5.13
2022-07-31T10:01:15.885Z,2.70
2022-07-31T10:04:44.687Z,2.35
2022-07-31T10:07:58.064Z,1.03
2022-07-31T10:11:16.849Z,1.10
2022-07-31T10:14:49.063Z,5.03
2022-07-31T10:18:02.493Z,1.50
2022-07-31T10:21:20.153Z,1.10
2022-07-31T10:24:37.377Z,3.63
2022-07-31T10:27:53.690Z,1.85
2022-07-31T10:31:06.629Z,2.10
2022-07-31T10:34:20.450Z,2.50
2022-07-31T10:37:59.887Z,1.98
2022-07-31T10:41:36.709Z,2.20
2022-07-31T10:44:56.045Z,2.63
2022-07-31T10:48:15.201Z,1.98
2022-07-31T10:51:32.334Z,8.05
2022-07-31T10:54:54.677Z,3.58
2022-07-31T10:58:25.051Z,2.48
2022-07-31T11:01:36.935Z,1.10
2022-07-31T11:04:57.524Z,1.23
2022-07-31T11:08:13.753Z,1.80
2022-07-31T11:11:44.192Z,2.30
2022-07-31T11:15:29.931Z,1.63
2022-07-31T11:19:09.734Z,1.70
2022-07-31T11:22:31.819Z,1.45
2022-07-31T11:25:41.439Z,2.08
2022-07-31T11:28:53.181Z,0.85
2022-07-31T11:32:24.797Z,1.23
2022-07-31T11:35:35.401Z,1.10
2022-07-31T11:38:49.859Z,1.00
2022-07-31T11:42:01.780Z,2.70
2022-07-31T11:45:16.781Z,2.23
2022-07-31T11:48:36.008Z,0.70
2022-07-31T11:51:45.845Z,1.55
2022-07-31T11:55:09.303Z,1.35
2022-07-31T11:58:23.650Z,0.65
2022-07-31T12:01:36.920Z,0.60
2022-07-31T12:04:51.097Z,0.95
2022-07-31T12:08:03.383Z,2.43
2022-07-31T12:11:17.093Z,3.68
2022-07-31T12:14:38.124Z,2.23
2022-07-31T12:17:50.759Z,1.00
2022-07-31T12:21:05.507Z,0.85
2022-07-31T12:24:20.710Z,0.70
2022-07-31T12:27:32.525Z,1.00
2022-07-31T12:30:44.785Z,1.33
2022-07-31T12:33:56.492Z,0.80
2022-07-31T12:37:12.181Z,2.83
2022-07-31T12:40:34.352Z,2.98
2022-07-31T12:43:51.820Z,0.88
2022-07-31T12:47:00.459Z,0.60
2022-07-31T12:50:13.567Z,3.20
2022-07-31T12:53:25.219Z,0.63
2022-07-31T12:56:39.598Z,1.20
2022-07-31T12:59:51.164Z,0.70
2022-07-31T13:03:03.588Z,0.60
2022-07-31T13:06:15.514Z,1.90
2022-07-31T13:09:27.367Z,2.38
2022-07-31T13:12:39.438Z,0.73
2022-07-31T13:15:51.807Z,0.50
2022-07-31T13:19:05.378Z,0.88
2022-07-31T13:22:17.612Z,11.85
2022-07-31T13:25:30.333Z,1.23
2022-07-31T13:28:41.942Z,5.03
2022-07-31T13:31:53.864Z,0.80
2022-07-31T13:35:25.403Z,0.70
2022-07-31T13:38:19.525Z,1.00
2022-07-31T13:41:34.026Z,0.60
2022-07-31T13:44:46.193Z,2.15
2022-07-31T13:48:00.509Z,1.13
2022-07-31T13:51:11.616Z,1.78
2022-07-31T13:54:23.334Z,2.08
2022-07-31T13:57:35.209Z,1.55
2022-07-31T14:00:46.775Z,1.20
2022-07-31T14:03:58.574Z,3.98
2022-07-31T14:07:12.849Z,2.88
2022-07-31T14:10:24.295Z,5.03
2022-07-31T14:13:42.389Z,2.68
2022-07-31T14:16:49.743Z,4.30
2022-07-31T14:20:01.490Z,1.00
2022-07-31T14:23:13.922Z,0.80
2022-07-31T14:26:25.650Z,3.35
2022-07-31T14:29:37.335Z,2.48
2022-07-31T14:32:48.884Z,1.85
2022-07-31T14:36:00.498Z,1.85
2022-07-31T14:39:12.148Z,2.88
2022-07-31T14:42:25.756Z,2.23
2022-07-31T14:45:51.199Z,1.85
2022-07-31T14:48:52.407Z,1.90
2022-07-31T14:52:04.229Z,2.68
2022-07-31T14:55:17.529Z,2.85
2022-07-31T14:58:30.031Z,1.60
2022-07-31T15:01:41.823Z,3.93
2022-07-31T15:04:53.539Z,2.63
2022-07-31T15:08:05.283Z,1.73
2022-07-31T15:11:17.002Z,2.35
2022-07-31T15:14:28.575Z,4.30
2022-07-31T15:17:40.289Z,2.45
2022-07-31T15:20:51.879Z,2.43
2022-07-31T15:24:03.642Z,2.50
2022-07-31T15:27:15.391Z,3.33
2022-07-31T15:30:27.072Z,2.13
2022-07-31T15:33:39.182Z,4.98
2022-07-31T15:36:52.983Z,3.50
2022-07-31T15:40:04.606Z,3.10
2022-07-31T15:43:16.235Z,4.15
2022-07-31T15:46:27.842Z,3.28
2022-07-31T15:49:44.160Z,3.10
2022-07-31T15:52:53.915Z,3.63
2022-07-31T15:56:08.277Z,3.75
2022-07-31T15:59:20.017Z,2.98
2022-07-31T16:02:32.282Z,7.90
2022-07-31T16:05:44.171Z,4.98
2022-07-31T16:08:58.292Z,23.38
2022-07-31T16:12:12.243Z,13.08
2022-07-31T16:15:24.297Z,4.20
2022-07-31T16:18:38.385Z,7.40
2022-07-31T16:21:51.130Z,4.15
2022-07-31T16:25:02.950Z,4.48
2022-07-31T16:28:15.107Z,4.83
2022-07-31T16:31:29.771Z,3.83
2022-07-31T16:34:40.935Z,4.35
2022-07-31T16:54:13.550Z,3.48
2022-07-31T16:57:19.327Z,5.03
2022-07-31T17:09:32.937Z,36.30
2022-07-31T17:18:52.597Z,5.05
2022-07-31T17:22:16.087Z,5.03
2022-07-31T17:25:35.201Z,6.63
2022-07-31T18:22:22.221Z,10.30
2022-07-31T18:25:36.379Z,4.88
2022-07-31T18:28:48.287Z,8.55
2022-07-31T18:32:04.775Z,6.48
2022-07-31T18:35:17.966Z,8.35
2022-07-31T18:38:32.258Z,7.58
2022-07-31T18:44:48.447Z,8.38
2022-07-31T18:48:12.724Z,8.93
2022-07-31T18:51:36.555Z,10.55
2022-07-31T18:54:52.747Z,7.63
2022-07-31T18:58:03.239Z,7.53
2022-07-31T19:01:35.441Z,12.03
2022-07-31T19:04:59.636Z,10.90
2022-07-31T19:08:32.302Z,10.05
2022-07-31T19:15:27.572Z,6.73
2022-07-31T19:18:55.069Z,24.68
2022-07-31T19:22:15.074Z,10.43
2022-07-31T19:25:27.449Z,13.85
2022-07-31T19:28:41.959Z,12.60
2022-07-31T19:31:54.591Z,8.53
2022-07-31T19:35:09.290Z,11.13
2022-07-31T19:38:21.612Z,7.70
2022-07-31T19:41:41.174Z,8.38
2022-07-31T19:44:54.932Z,10.98
2022-07-31T19:48:09.296Z,8.38
2022-07-31T19:51:22.673Z,7.65
2022-07-31T19:54:35.696Z,9.80
2022-07-31T19:57:48.864Z,8.43
2022-07-31T20:01:01.061Z,8.63
2022-07-31T20:04:14.342Z,6.80
2022-07-31T20:07:29.753Z,6.33
2022-07-31T20:10:40.390Z,14.30
2022-07-31T20:13:52.790Z,9.75
2022-07-31T20:17:04.893Z,8.43
2022-07-31T20:20:18.247Z,6.25
2022-07-31T20:23:31.162Z,12.83
2022-07-31T20:26:43.093Z,6.60
2022-07-31T20:33:35.474Z,9.33
2022-07-31T20:36:47.293Z,6.40
2022-07-31T20:40:02.287Z,7.23
2022-07-31T20:43:16.153Z,12.68
2022-07-31T20:46:28.075Z,8.28
2022-07-31T20:49:40.152Z,9.30
2022-07-31T20:52:52.016Z,9.15
2022-07-31T20:56:05.894Z,6.83
2022-07-31T20:59:18.425Z,8.40
2022-07-31T21:02:31.407Z,12.98
2022-07-31T21:05:43.446Z,5.48
2022-07-31T21:08:55.745Z,10.65
2022-07-31T21:12:08.587Z,9.05
2022-07-31T21:15:42.608Z,6.40
2022-07-31T21:18:41.211Z,9.38
2022-07-31T21:21:51.203Z,11.90
2022-07-31T21:25:05.572Z,7.00
2022-07-31T21:28:18.456Z,7.13
2022-07-31T21:31:31.261Z,9.90
2022-07-31T21:34:44.504Z,7.73
2022-07-31T21:37:58.060Z,9.73
2022-07-31T21:41:11.551Z,8.70
2022-07-31T21:44:24.291Z,7.80
2022-07-31T21:47:53.065Z,6.70
2022-07-31T21:50:56.546Z,14.33
2022-07-31T21:54:08.438Z,12.35
2022-07-31T21:57:20.160Z,9.13
2022-07-31T22:00:32.194Z,11.83
2022-07-31T22:03:44.000Z,9.40
2022-07-31T22:07:09.397Z,7.58
2022-07-31T22:10:23.491Z,9.60
2022-07-31T22:13:35.429Z,9.88
2022-07-31T22:16:47.255Z,8.28
2022-07-31T22:20:02.531Z,9.50
2022-07-31T22:23:18.276Z,10.95
2022-07-31T22:26:30.842Z,8.50
2022-07-31T22:29:43.091Z,8.25
2022-07-31T22:32:55.751Z,10.48
2022-07-31T22:36:10.430Z,7.48
2022-07-31T22:39:23.696Z,7.63
2022-07-31T22:42:35.949Z,6.48
2022-07-31T22:45:49.008Z,11.03
2022-07-31T22:49:01.773Z,6.85
2022-07-31T22:52:14.111Z,9.68
2022-07-31T22:55:25.958Z,8.05
2022-07-31T22:58:37.596Z,6.00
2022-07-31T23:01:49.297Z,6.30
2022-07-31T23:05:00.887Z,8.05
2022-07-31T23:08:12.830Z,11.48
2022-07-31T23:11:24.693Z,6.15
2022-07-31T23:14:36.730Z,8.40
2022-07-31T23:17:48.380Z,11.33
2022-07-31T23:21:00.137Z,9.63
2022-07-31T23:24:12.948Z,11.65
2022-07-31T23:27:24.672Z,9.40
2022-07-31T23:30:36.470Z,6.90
2022-07-31T23:33:48.780Z,7.08
2022-07-31T23:37:00.437Z,12.23
2022-07-31T23:40:15.547Z,6.80
2022-07-31T23:43:27.473Z,9.33
2022-07-31T23:46:40.542Z,8.10
2022-07-31T23:49:52.597Z,13.03
2022-07-31T23:53:04.200Z,9.63
2022-07-31T23:56:19.122Z,9.03
2022-07-31T23:59:29.517Z,10.10
